Baker, California
Current Conditions -  °F | °C
As of 9:55 PM on Friday 28 Nov 2014 (Local Time) from KBYS Reporting Station
Clear Clear  
Wind Chill: 63°   Ceiling: Unl
Heat Index: 63°   Visibility: 10mi
Dew Point: 10°   Wind: 6mph
Humidity: 13%   Direction: 220°SW
Pressure: 29.92"   Gusts: NA
Location:  35.26°N, 116.07°W
Report Text: KBYS 290555Z AUTO 22005KT 10SM CLR 17/M12 A2992 RMK AO2 SLP117 T01731121 10195 20165 54001 $
Loading
Personal Weather Stations






























Interactive Weather Map New forecast layout! Learn more

10-Day Weather Forecast

Advertisements
Track Severe Weather on mobile